createdAt,value
2022-08-03T00:01:30.478Z,4.00
2022-08-03T00:03:57.687Z,4.73
2022-08-03T00:06:24.715Z,3.70
2022-08-03T00:08:52.304Z,3.83
2022-08-03T00:11:19.850Z,3.57
2022-08-03T00:13:47.267Z,3.60
2022-08-03T00:16:14.476Z,3.03
2022-08-03T00:18:41.606Z,2.77
2022-08-03T00:21:08.664Z,3.20
2022-08-03T00:23:51.120Z,3.27
2022-08-03T00:26:20.797Z,3.17
2022-08-03T00:28:48.442Z,3.53
2022-08-03T00:31:15.737Z,2.97
2022-08-03T00:33:57.911Z,2.67
2022-08-03T00:36:25.966Z,4.53
2022-08-03T00:38:54.786Z,3.40
2022-08-03T00:41:22.010Z,3.80
2022-08-03T00:43:49.001Z,3.27
2022-08-03T00:46:20.797Z,3.27
2022-08-03T00:48:53.139Z,3.43
2022-08-03T00:51:21.693Z,3.60
2022-08-03T00:53:49.868Z,2.97
2022-08-03T00:56:17.665Z,2.83
2022-08-03T00:58:46.011Z,3.83
2022-08-03T01:01:14.079Z,3.33
2022-08-03T01:03:42.356Z,3.03
2022-08-03T01:06:28.346Z,3.23
2022-08-03T01:09:27.762Z,3.33
2022-08-03T01:12:28.644Z,3.33
2022-08-03T01:15:03.033Z,3.33
2022-08-03T01:17:51.476Z,3.60
2022-08-03T01:20:20.863Z,3.17
2022-08-03T01:23:10.131Z,3.00
2022-08-03T01:26:12.580Z,3.53
2022-08-03T01:29:05.141Z,2.53
2022-08-03T01:32:58.411Z,3.27
2022-08-03T01:34:31.480Z,3.40
2022-08-03T01:37:01.637Z,2.83
2022-08-03T01:39:32.266Z,3.20
2022-08-03T01:42:06.174Z,3.50
2022-08-03T01:44:40.613Z,3.60
2022-08-03T01:47:08.872Z,3.90
2022-08-03T01:49:40.649Z,5.00
2022-08-03T01:52:09.049Z,3.37
2022-08-03T01:54:42.066Z,3.60
2022-08-03T01:57:10.869Z,4.27
2022-08-03T01:59:40.167Z,3.80
2022-08-03T02:02:32.170Z,2.90
2022-08-03T02:04:59.042Z,3.60
2022-08-03T02:07:29.020Z,3.10
2022-08-03T02:09:59.381Z,3.40
2022-08-03T02:12:28.857Z,2.60
2022-08-03T02:14:57.630Z,3.10
2022-08-03T02:17:39.228Z,2.80
2022-08-03T02:20:12.637Z,5.43
2022-08-03T02:22:41.551Z,3.23
2022-08-03T02:25:11.232Z,3.87
2022-08-03T02:27:53.021Z,3.50
2022-08-03T02:30:31.061Z,3.13
2022-08-03T02:32:59.993Z,3.40
2022-08-03T02:35:30.405Z,2.87
2022-08-03T02:38:02.815Z,2.80
2022-08-03T02:40:32.216Z,3.93
2022-08-03T02:43:02.489Z,4.00
2022-08-03T02:45:32.619Z,4.60
2022-08-03T02:48:04.038Z,2.83
2022-08-03T02:50:32.408Z,2.80
2022-08-03T02:53:01.393Z,3.20
2022-08-03T02:55:31.008Z,3.27
2022-08-03T02:58:01.316Z,2.97
2022-08-03T03:00:31.661Z,4.80
2022-08-03T03:03:02.703Z,3.07
2022-08-03T03:05:54.652Z,4.97
2022-08-03T03:08:26.121Z,3.20
2022-08-03T03:11:01.072Z,3.93
2022-08-03T03:13:32.370Z,3.70
2022-08-03T03:16:06.014Z,3.30
2022-08-03T03:18:34.198Z,3.60
2022-08-03T03:21:03.433Z,3.20
2022-08-03T03:23:31.918Z,3.60
2022-08-03T03:26:02.359Z,3.53
2022-08-03T03:28:31.030Z,3.30
2022-08-03T03:30:59.027Z,5.03
2022-08-03T03:33:28.392Z,5.23
2022-08-03T03:35:57.611Z,3.23
2022-08-03T03:38:24.680Z,4.03
2022-08-03T03:40:51.996Z,4.27
2022-08-03T03:43:19.203Z,4.03
2022-08-03T03:45:47.936Z,3.70
2022-08-03T03:48:15.262Z,4.80
2022-08-03T03:50:44.074Z,4.10
2022-08-03T03:53:12.000Z,3.17
2022-08-03T03:55:59.111Z,4.13
2022-08-03T03:58:27.638Z,4.20
2022-08-03T04:00:54.733Z,4.37
2022-08-03T04:03:23.123Z,4.17
2022-08-03T04:06:08.710Z,4.23
2022-08-03T04:08:54.438Z,3.20
2022-08-03T04:11:32.170Z,3.53
2022-08-03T04:14:06.412Z,3.53
2022-08-03T04:16:47.705Z,3.50
2022-08-03T04:19:23.892Z,4.10
2022-08-03T04:21:52.976Z,3.90
2022-08-03T04:24:30.358Z,3.63
2022-08-03T04:26:59.323Z,3.00
2022-08-03T04:29:28.230Z,2.60
2022-08-03T04:31:58.690Z,3.23
2022-08-03T04:34:25.863Z,2.63
2022-08-03T04:36:58.462Z,3.73
2022-08-03T04:39:29.904Z,2.80
2022-08-03T04:42:04.762Z,3.37
2022-08-03T04:44:40.525Z,3.50
2022-08-03T04:47:08.616Z,2.87
2022-08-03T04:49:38.178Z,3.70
2022-08-03T04:52:08.535Z,2.17
2022-08-03T04:54:48.848Z,2.47
2022-08-03T04:57:22.717Z,2.80
2022-08-03T05:00:02.467Z,2.60
2022-08-03T05:02:31.709Z,2.33
2022-08-03T05:04:59.002Z,2.70
2022-08-03T05:07:26.051Z,2.53
2022-08-03T05:09:57.640Z,2.30
2022-08-03T05:12:32.834Z,2.08
2022-08-03T05:15:01.226Z,2.70
2022-08-03T05:17:28.857Z,3.45
2022-08-03T05:19:56.446Z,5.10
2022-08-03T05:22:23.862Z,6.55
2022-08-03T05:24:51.213Z,2.20
2022-08-03T05:27:21.732Z,2.70
2022-08-03T05:29:50.462Z,4.95
2022-08-03T05:32:18.403Z,6.55
2022-08-03T05:34:45.739Z,3.75
2022-08-03T05:37:12.927Z,3.92
2022-08-03T05:39:40.144Z,10.85
2022-08-03T05:42:07.340Z,3.05
2022-08-03T05:44:34.419Z,3.72
2022-08-03T05:47:01.567Z,5.53
2022-08-03T05:49:28.711Z,5.38
2022-08-03T05:52:12.954Z,5.80
2022-08-03T05:54:57.011Z,2.92
2022-08-03T05:57:31.553Z,2.03
2022-08-03T05:59:58.984Z,2.67
2022-08-03T06:02:32.770Z,3.28
2022-08-03T06:04:59.817Z,5.05
2022-08-03T06:07:26.966Z,3.42
2022-08-03T06:10:34.410Z,4.47
2022-08-03T06:12:41.480Z,2.42
2022-08-03T06:15:11.442Z,3.78
2022-08-03T06:17:49.968Z,4.93
2022-08-03T06:20:18.963Z,4.03
2022-08-03T06:22:50.943Z,1.58
2022-08-03T06:25:21.335Z,3.25
2022-08-03T06:27:49.899Z,5.25
2022-08-03T06:30:21.030Z,4.00
2022-08-03T06:32:52.096Z,4.45
2022-08-03T06:35:20.219Z,2.83
2022-08-03T06:37:51.634Z,1.95
2022-08-03T06:40:24.595Z,2.80
2022-08-03T06:42:52.812Z,2.80
2022-08-03T06:45:19.935Z,2.85
2022-08-03T06:47:47.297Z,4.05
2022-08-03T06:50:16.812Z,5.47
2022-08-03T06:52:45.637Z,2.72
2022-08-03T06:55:12.942Z,3.30
2022-08-03T06:57:40.239Z,2.80
2022-08-03T07:00:12.222Z,4.53
2022-08-03T07:02:40.247Z,4.57
2022-08-03T07:05:08.443Z,2.83
2022-08-03T07:07:35.856Z,3.88
2022-08-03T07:10:03.940Z,1.83
2022-08-03T07:12:32.397Z,1.63
2022-08-03T07:15:02.347Z,3.10
2022-08-03T07:17:32.139Z,3.60
2022-08-03T07:19:59.951Z,2.15
2022-08-03T07:22:27.605Z,2.90
2022-08-03T07:24:55.749Z,3.60
2022-08-03T07:27:23.420Z,2.35
2022-08-03T07:29:50.645Z,1.73
2022-08-03T07:32:18.418Z,2.92
2022-08-03T07:34:45.857Z,4.22
2022-08-03T07:37:12.982Z,4.13
2022-08-03T07:39:40.150Z,3.47
2022-08-03T07:42:07.311Z,2.00
2022-08-03T07:44:34.379Z,1.50
2022-08-03T07:47:03.456Z,3.38
2022-08-03T07:49:30.882Z,3.22
2022-08-03T07:52:16.950Z,2.30
2022-08-03T07:54:44.408Z,3.15
2022-08-03T07:57:15.288Z,1.60
2022-08-03T07:59:56.747Z,2.90
2022-08-03T08:02:29.335Z,3.05
2022-08-03T08:04:56.494Z,6.95
2022-08-03T08:07:26.438Z,1.60
2022-08-03T08:09:53.566Z,1.50
2022-08-03T08:12:20.918Z,3.03
2022-08-03T08:14:48.196Z,1.67
2022-08-03T08:17:17.711Z,1.80
2022-08-03T08:19:48.314Z,3.75
2022-08-03T08:22:29.990Z,2.25
2022-08-03T08:24:59.589Z,3.67
2022-08-03T17:15:57.747Z,2.38
2022-08-03T17:18:27.055Z,2.83
2022-08-03T17:20:56.182Z,2.97
2022-08-03T17:23:52.496Z,3.05
2022-08-03T17:26:22.039Z,2.05
2022-08-03T17:28:57.233Z,1.75
2022-08-03T17:31:31.771Z,2.13
2022-08-03T17:34:04.599Z,2.20
2022-08-03T17:37:02.582Z,2.65
2022-08-03T17:39:58.900Z,1.80
2022-08-03T17:42:30.213Z,1.50
2022-08-03T17:45:02.224Z,3.08
2022-08-03T17:47:42.004Z,4.10
2022-08-03T17:50:24.539Z,3.58
2022-08-03T17:53:07.402Z,2.05
2022-08-03T17:55:55.893Z,1.98
2022-08-03T17:59:10.209Z,1.60
2022-08-03T18:02:15.236Z,1.50
2022-08-03T18:05:00.716Z,4.10
2022-08-03T18:07:41.306Z,5.78
2022-08-03T18:10:11.229Z,7.78
2022-08-03T18:12:53.203Z,12.95
2022-08-03T18:15:34.638Z,7.60
2022-08-03T18:18:10.767Z,8.10
2022-08-03T18:20:42.069Z,40.38
2022-08-03T18:23:25.121Z,54.10
2022-08-03T18:26:07.364Z,67.38
2022-08-03T18:28:40.733Z,128.07
2022-08-03T18:31:11.886Z,128.75
2022-08-03T18:34:18.525Z,140.80
2022-08-03T18:36:30.149Z,200.73
2022-08-03T18:39:00.047Z,119.47
2022-08-03T18:41:33.646Z,95.68
2022-08-03T18:44:06.606Z,61.55
2022-08-03T18:47:07.364Z,101.90
2022-08-03T18:49:55.309Z,108.00
2022-08-03T18:52:52.877Z,122.03
2022-08-03T18:55:33.380Z,96.47
2022-08-03T18:58:25.552Z,43.70
2022-08-03T19:01:04.664Z,36.45
2022-08-03T19:03:47.875Z,19.25
2022-08-03T19:06:21.710Z,28.15
2022-08-03T19:08:58.352Z,24.45
2022-08-03T19:12:12.616Z,26.77
2022-08-03T19:14:31.691Z,21.70
2022-08-03T19:17:06.938Z,27.10
2022-08-03T19:19:43.580Z,23.73
2022-08-03T19:22:19.657Z,23.05
2022-08-03T19:24:49.177Z,23.45
2022-08-03T19:27:16.544Z,20.23
2022-08-03T19:29:58.579Z,15.90
2022-08-03T19:32:33.083Z,15.68
2022-08-03T19:35:03.516Z,9.40
2022-08-03T19:37:44.663Z,12.13
2022-08-03T19:40:12.753Z,21.02
2022-08-03T19:42:44.800Z,10.43
2022-08-03T19:45:17.157Z,10.02
2022-08-03T19:48:10.004Z,7.93
2022-08-03T19:50:44.533Z,12.52
2022-08-03T19:53:13.610Z,9.60
2022-08-03T19:55:48.152Z,5.97
2022-08-03T19:58:17.520Z,4.90
2022-08-03T20:00:58.909Z,4.95
2022-08-03T20:03:43.342Z,4.47
2022-08-03T20:06:12.593Z,8.25
2022-08-03T20:08:51.424Z,8.82
2022-08-03T20:11:28.636Z,11.48
2022-08-03T20:13:58.124Z,8.32
2022-08-03T20:16:26.129Z,13.48
2022-08-03T20:18:53.198Z,16.98
2022-08-03T20:21:24.910Z,12.68
2022-08-03T20:24:03.213Z,23.40
2022-08-03T20:26:51.794Z,14.68
2022-08-03T20:29:42.524Z,7.57
2022-08-03T20:32:18.469Z,7.70
2022-08-03T20:34:45.920Z,6.15
2022-08-03T20:37:16.794Z,5.88
2022-08-03T20:39:48.196Z,8.30
2022-08-03T20:42:21.777Z,9.23
2022-08-03T20:45:04.268Z,8.23
2022-08-03T20:47:35.892Z,9.65
2022-08-03T20:50:07.630Z,4.18
2022-08-03T20:52:43.980Z,6.82
2022-08-03T20:55:18.780Z,5.90
2022-08-03T20:57:48.343Z,4.78
2022-08-03T21:00:35.227Z,4.82
2022-08-03T21:03:02.725Z,5.82
2022-08-03T21:05:48.447Z,6.43
2022-08-03T21:08:21.701Z,4.97
2022-08-03T21:10:52.605Z,4.53
2022-08-03T21:13:24.759Z,3.85
2022-08-03T21:16:11.247Z,5.40
2022-08-03T21:18:58.158Z,6.10
2022-08-03T21:21:30.749Z,8.35
2022-08-03T21:24:03.570Z,7.22
2022-08-03T21:26:33.613Z,8.13
2022-08-03T21:29:02.489Z,5.38
2022-08-03T21:31:30.136Z,4.03
2022-08-03T21:34:01.725Z,6.25
2022-08-03T21:36:31.418Z,4.80
2022-08-03T21:38:59.348Z,5.55
2022-08-03T21:41:31.354Z,6.53
2022-08-03T21:43:59.919Z,5.95
2022-08-03T21:46:40.126Z,4.00
2022-08-03T21:50:07.140Z,6.88
2022-08-03T21:51:59.771Z,5.43
2022-08-03T21:54:38.955Z,3.33
2022-08-03T21:57:18.032Z,9.55
2022-08-03T21:59:57.041Z,4.95
2022-08-03T22:02:31.363Z,5.93
2022-08-03T22:04:59.587Z,4.32
2022-08-03T22:07:29.299Z,4.30
2022-08-03T22:10:01.431Z,4.80
2022-08-03T22:12:30.978Z,7.65
2022-08-03T22:15:02.407Z,3.40
2022-08-03T22:17:54.637Z,4.63
2022-08-03T22:20:20.341Z,3.92
2022-08-03T22:22:55.243Z,4.38
2022-08-03T22:25:28.789Z,4.57
2022-08-03T22:28:06.138Z,3.95
2022-08-03T22:30:33.573Z,4.40
2022-08-03T22:33:03.901Z,3.10
2022-08-03T22:35:47.264Z,2.78
2022-08-03T22:38:17.158Z,3.80
2022-08-03T22:40:44.792Z,4.63
2022-08-03T22:43:12.098Z,4.75
2022-08-03T22:46:06.170Z,4.10
2022-08-03T22:48:27.761Z,5.22
2022-08-03T22:50:56.722Z,4.10
2022-08-03T22:53:24.018Z,5.78
2022-08-03T22:55:52.373Z,4.82
2022-08-03T22:58:20.961Z,4.15
2022-08-03T23:00:57.515Z,3.47
2022-08-03T23:04:00.776Z,4.30
2022-08-03T23:06:21.814Z,3.75
2022-08-03T23:08:50.702Z,4.13
2022-08-03T23:11:18.462Z,3.60
2022-08-03T23:13:52.146Z,3.85
2022-08-03T23:16:29.175Z,4.85
2022-08-03T23:18:59.652Z,4.20
2022-08-03T23:22:00.077Z,5.43
2022-08-03T23:24:28.500Z,6.63
2022-08-03T23:26:58.235Z,4.40
2022-08-03T23:29:26.530Z,6.03
2022-08-03T23:31:54.514Z,4.15
2022-08-03T23:34:42.270Z,7.13
2022-08-03T23:37:09.634Z,5.77
2022-08-03T23:39:38.090Z,4.00
2022-08-03T23:42:06.059Z,3.92
2022-08-03T23:44:36.878Z,3.75
2022-08-03T23:47:03.987Z,5.00
2022-08-03T23:49:31.323Z,4.50
2022-08-03T23:52:26.415Z,3.97
2022-08-03T23:55:11.860Z,4.40
2022-08-03T23:57:44.973Z,2.70
